Time;durP1;ratioP1;P1;durP2;ratioP2;P2;SDS_P1;SDS_P2;PMS_P1;PMS_P2;Temp;Humidity;BMP_temperature;BMP_pressure;BME280_temperature;BME280_humidity;BME280_pressure;Samples;Min_cycle;Max_cycle;Signal;HPM_P1;HPM_P2
2021/12/25 00:01:46;;;;;;;0.70;0.70;;;-4.60;99.90;;;;;;4954349;28;20629;-73
2021/12/25 00:04:11;;;;;;;0.88;0.88;;;-4.70;99.90;;;;;;4954052;28;20194;-73
2021/12/25 00:06:37;;;;;;;0.80;0.80;;;-4.70;99.90;;;;;;4953837;28;20265;-74
2021/12/25 00:09:05;;;;;;;0.80;0.80;;;-4.70;99.90;;;;;;4953769;28;20209;-73
2021/12/25 00:11:30;;;;;;;0.80;0.80;;;-4.80;99.90;;;;;;4953635;28;20449;-74
2021/12/25 00:13:56;;;;;;;0.80;0.80;;;-4.90;99.90;;;;;;4953470;28;20530;-74
2021/12/25 00:16:21;;;;;;;0.80;0.80;;;-4.90;99.90;;;;;;4953508;28;20590;-73
2021/12/25 00:18:47;;;;;;;0.80;0.80;;;-4.90;99.90;;;;;;4953677;28;20705;-73
2021/12/25 00:21:12;;;;;;;0.80;0.80;;;-5.00;99.90;;;;;;4953651;28;20254;-74
2021/12/25 00:23:38;;;;;;;0.90;0.90;;;-5.00;99.90;;;;;;4953636;28;20197;-73
2021/12/25 00:26:24;;;;;;;0.80;0.80;;;-5.00;99.90;;;;;;4953334;28;20519;-73
2021/12/25 00:28:58;;;;;;;0.80;0.80;;;-5.00;99.90;;;;;;4953429;28;20232;-73
2021/12/25 00:31:43;;;;;;;0.80;0.80;;;-5.00;99.90;;;;;;4953588;28;20268;-74
2021/12/25 00:34:10;;;;;;;0.80;0.80;;;-5.00;99.90;;;;;;4953273;28;20245;-74
2021/12/25 00:36:35;;;;;;;0.80;0.80;;;-5.10;99.90;;;;;;4952697;28;20227;-73
2021/12/25 00:39:01;;;;;;;0.80;0.80;;;-5.10;99.90;;;;;;4953473;28;20173;-74
2021/12/25 00:41:26;;;;;;;0.80;0.80;;;-5.10;99.90;;;;;;4953349;28;20202;-73
2021/12/25 00:43:52;;;;;;;1.00;1.00;;;-5.10;99.90;;;;;;4953089;28;20285;-73
2021/12/25 00:46:18;;;;;;;0.93;0.93;;;-5.10;99.90;;;;;;4953137;28;20216;-73
2021/12/25 00:48:44;;;;;;;2.13;1.00;;;-5.20;99.90;;;;;;4952971;28;20175;-73
2021/12/25 00:51:10;;;;;;;1.38;1.27;;;-5.20;99.90;;;;;;4964090;28;20251;-73
2021/12/25 00:53:35;;;;;;;1.00;1.00;;;-5.10;99.90;;;;;;4972286;28;20173;-73
2021/12/25 00:56:01;;;;;;;2.30;1.23;;;-5.10;99.90;;;;;;4972092;28;20173;-74
2021/12/25 00:58:26;;;;;;;0.90;0.90;;;-5.20;99.90;;;;;;4972250;28;20748;-73
2021/12/25 01:00:52;;;;;;;1.10;1.10;;;-5.20;99.90;;;;;;4972369;28;20173;-73
2021/12/25 01:03:18;;;;;;;0.80;0.80;;;-5.20;99.90;;;;;;4972407;28;20535;-74
2021/12/25 01:05:44;;;;;;;0.80;0.80;;;-5.30;99.90;;;;;;4972208;28;20256;-73
2021/12/25 01:08:10;;;;;;;0.90;0.90;;;-5.20;99.90;;;;;;4972340;28;20297;-73
2021/12/25 01:10:36;;;;;;;0.80;0.80;;;-5.20;99.90;;;;;;4971955;28;20170;-75
2021/12/25 01:13:09;;;;;;;1.10;1.10;;;-5.30;99.90;;;;;;4971921;28;20252;-75
2021/12/25 01:30:34;;;;;;;0.80;0.80;;;-5.10;99.90;;;;;;4972066;28;20188;-72
2021/12/25 01:36:13;;;;;;;1.00;1.00;;;-5.20;99.90;;;;;;4971733;28;20648;-73
2021/12/25 01:49:25;;;;;;;0.90;0.90;;;-5.20;99.90;;;;;;4977133;28;20256;-74
2021/12/25 01:51:51;;;;;;;2.23;1.50;;;-5.20;99.90;;;;;;4977717;28;20613;-76
2021/12/25 01:54:16;;;;;;;0.90;0.90;;;-5.30;99.90;;;;;;4976012;28;20174;-74
2021/12/25 01:56:42;;;;;;;0.90;0.90;;;-5.30;99.90;;;;;;4975579;28;20252;-72
2021/12/25 01:59:08;;;;;;;0.80;0.80;;;-5.30;99.90;;;;;;4975303;28;20205;-75
2021/12/25 02:01:33;;;;;;;0.80;0.80;;;-5.40;99.90;;;;;;4975547;28;20612;-74
2021/12/25 02:03:59;;;;;;;0.80;0.80;;;-5.30;99.90;;;;;;4975314;28;20209;-74
2021/12/25 02:06:24;;;;;;;0.80;0.80;;;-5.30;99.90;;;;;;4974880;28;20200;-74
2021/12/25 02:08:50;;;;;;;0.90;0.90;;;-5.30;99.90;;;;;;4975337;28;20216;-72
2021/12/25 02:11:15;;;;;;;0.83;0.83;;;-5.40;99.90;;;;;;4975470;28;20176;-73
2021/12/25 02:13:42;;;;;;;0.90;0.90;;;-5.40;99.90;;;;;;4975445;28;20551;-73
2021/12/25 02:16:14;;;;;;;0.80;0.80;;;-5.40;99.90;;;;;;4974815;28;20301;-73
2021/12/25 02:19:01;;;;;;;1.00;1.00;;;-5.30;99.90;;;;;;4976048;28;20220;-74
2021/12/25 02:21:34;;;;;;;1.00;1.00;;;-5.40;99.90;;;;;;4976549;28;20166;-73
2021/12/25 02:24:00;;;;;;;0.90;0.90;;;-5.50;99.90;;;;;;4976320;28;20185;-73
2021/12/25 02:26:26;;;;;;;0.90;0.90;;;-5.50;99.90;;;;;;4976501;28;20186;-73
2021/12/25 02:28:53;;;;;;;0.80;0.80;;;-5.50;99.90;;;;;;4977069;28;20223;-73
2021/12/25 02:31:19;;;;;;;0.80;0.80;;;-5.60;99.90;;;;;;4974526;28;20584;-73
2021/12/25 02:33:45;;;;;;;1.75;1.65;;;-5.50;99.90;;;;;;4978254;28;20251;-75
2021/12/25 02:36:12;;;;;;;0.93;0.93;;;-5.60;99.90;;;;;;4975951;28;20224;-73
2021/12/25 02:38:39;;;;;;;0.85;0.85;;;-5.60;99.90;;;;;;4975407;28;20432;-75
2021/12/25 02:41:06;;;;;;;0.80;0.80;;;-5.60;99.90;;;;;;4963908;28;20179;-74
2021/12/25 02:43:32;;;;;;;0.85;0.85;;;-5.60;99.90;;;;;;4955773;28;20257;-73
2021/12/25 02:46:02;;;;;;;0.90;0.90;;;-5.60;99.90;;;;;;4955438;28;20656;-73
2021/12/25 02:48:28;;;;;;;0.90;0.90;;;-5.70;99.90;;;;;;4955695;28;20178;-73
2021/12/25 02:50:54;;;;;;;1.00;1.00;;;-5.70;99.90;;;;;;4955411;28;20174;-74
2021/12/25 02:53:20;;;;;;;1.00;1.00;;;-5.70;99.90;;;;;;4955361;28;20178;-73
2021/12/25 02:55:46;;;;;;;1.00;1.00;;;-5.70;99.90;;;;;;4955326;28;20202;-74
2021/12/25 02:58:13;;;;;;;1.30;1.30;;;-5.80;99.90;;;;;;4954834;28;20642;-73
2021/12/25 03:00:48;;;;;;;1.30;1.20;;;-5.70;99.90;;;;;;4954900;28;20166;-73
2021/12/25 03:03:14;;;;;;;0.82;0.82;;;-5.60;99.90;;;;;;4954889;28;20176;-74
2021/12/25 03:05:40;;;;;;;1.20;1.20;;;-5.70;99.90;;;;;;4954816;28;20634;-74
2021/12/25 03:08:08;;;;;;;0.90;0.90;;;-5.80;99.90;;;;;;4954769;28;20214;-74
2021/12/25 03:10:35;;;;;;;0.80;0.80;;;-5.80;99.90;;;;;;4970337;23;20654;-71
2021/12/25 03:13:19;;;;;;;0.87;0.87;;;-5.80;99.90;;;;;;5010387;28;20244;-69
2021/12/25 03:15:46;;;;;;;0.90;0.90;;;-5.90;99.90;;;;;;4994030;28;20396;-69
2021/12/25 03:18:19;;;;;;;1.33;1.23;;;-5.90;99.90;;;;;;4994112;28;20205;-71
2021/12/25 03:20:48;;;;;;;0.90;0.90;;;-5.90;99.90;;;;;;4991116;28;20947;-69
2021/12/25 03:23:16;;;;;;;0.90;0.90;;;-5.90;99.90;;;;;;4975149;28;20181;-70
2021/12/25 03:25:43;;;;;;;0.90;0.90;;;-5.90;99.90;;;;;;4974610;28;20239;-69
2021/12/25 03:28:09;;;;;;;0.90;0.90;;;-5.90;99.90;;;;;;4974947;28;20170;-69
2021/12/25 03:30:38;;;;;;;0.90;0.90;;;-5.90;99.90;;;;;;4974850;28;20525;-69
2021/12/25 03:33:05;;;;;;;1.80;1.05;;;-6.00;99.90;;;;;;4974494;28;20240;-70
2021/12/25 03:35:31;;;;;;;1.40;1.30;;;-6.00;99.90;;;;;;4974585;28;20545;-70
2021/12/25 03:37:57;;;;;;;0.90;0.90;;;-5.90;99.90;;;;;;4974394;28;20205;-70
2021/12/25 03:40:22;;;;;;;1.00;1.00;;;-5.90;99.90;;;;;;4974392;28;20249;-70
2021/12/25 03:42:48;;;;;;;0.90;0.90;;;-5.90;99.90;;;;;;4974244;28;20182;-70
2021/12/25 03:45:15;;;;;;;1.07;1.07;;;-5.90;99.90;;;;;;4974349;28;20178;-70
2021/12/25 03:47:41;;;;;;;0.80;0.80;;;-5.90;99.90;;;;;;4974388;28;20177;-70
2021/12/25 03:57:35;;;;;;;0.90;0.90;;;-6.00;99.90;;;;;;4973957;28;20409;-70
2021/12/25 03:58:30;;;;;;;1.23;1.13;;;-5.90;99.90;;;;;;4973996;28;20691;-70
2021/12/25 04:01:01;;;;;;;0.80;0.80;;;-5.90;99.90;;;;;;4974236;28;20197;-70
2021/12/25 04:03:45;;;;;;;0.90;0.90;;;-5.90;99.90;;;;;;4974175;28;20169;-69
2021/12/25 04:06:11;;;;;;;0.88;0.88;;;-5.90;99.90;;;;;;4973632;28;20542;-70
2021/12/25 04:08:43;;;;;;;4.37;2.50;;;-6.00;99.90;;;;;;4973410;28;20169;-70
2021/12/25 04:11:26;;;;;;;1.60;1.30;;;-6.00;99.90;;;;;;4973101;28;20209;-70
2021/12/25 04:13:52;;;;;;;0.90;0.90;;;-6.00;99.90;;;;;;4973940;28;20177;-70
2021/12/25 04:16:18;;;;;;;0.90;0.90;;;-6.00;99.90;;;;;;4973877;28;20197;-70
2021/12/25 04:18:43;;;;;;;0.90;0.90;;;-6.00;99.90;;;;;;4973633;28;20174;-70
2021/12/25 04:21:08;;;;;;;0.90;0.90;;;-6.00;99.90;;;;;;4973792;28;20560;-70
2021/12/25 04:23:37;;;;;;;4.10;1.53;;;-6.00;99.90;;;;;;4973535;28;20166;-70
2021/12/25 04:26:03;;;;;;;1.85;1.75;;;-6.00;99.90;;;;;;4973545;28;20189;-70
2021/12/25 04:28:44;;;;;;;0.80;0.80;;;-6.10;99.90;;;;;;4973640;28;20530;-70
2021/12/25 04:50:30;;;;;;;0.80;0.80;;;-6.00;99.90;;;;;;4994929;28;20183;-70
2021/12/25 05:03:57;;;;;;;1.00;1.00;;;-6.00;99.90;;;;;;4992532;28;20199;-69
2021/12/25 05:06:24;;;;;;;0.90;0.90;;;-6.00;99.90;;;;;;4991280;28;20256;-69
2021/12/25 05:08:54;;;;;;;0.90;0.90;;;-6.10;99.90;;;;;;4991183;28;20177;-70
2021/12/25 05:11:20;;;;;;;1.10;1.00;;;-6.00;99.90;;;;;;4992158;28;20255;-70
2021/12/25 05:13:48;;;;;;;0.90;0.90;;;-5.90;99.90;;;;;;4992502;28;20176;-69
2021/12/25 05:16:14;;;;;;;0.90;0.90;;;-6.00;99.90;;;;;;4992635;28;20220;-70
2021/12/25 05:18:40;;;;;;;1.00;1.00;;;-6.00;99.90;;;;;;4992944;28;20574;-69
2021/12/25 05:21:07;;;;;;;0.90;0.90;;;-6.00;99.90;;;;;;4997590;28;20180;-69
2021/12/25 05:23:33;;;;;;;0.90;0.90;;;-6.00;99.90;;;;;;5002593;28;20165;-70
2021/12/25 05:25:58;;;;;;;1.00;1.00;;;-6.00;99.90;;;;;;4997538;28;20180;-70
2021/12/25 05:28:26;;;;;;;2.50;1.40;;;-6.00;99.90;;;;;;4996160;28;20789;-70
2021/12/25 05:30:54;;;;;;;1.65;1.55;;;-6.00;99.90;;;;;;4996464;28;20196;-70
2021/12/25 05:33:21;;;;;;;0.90;0.90;;;-6.10;99.90;;;;;;4996350;28;20236;-70
2021/12/25 05:35:48;;;;;;;0.80;0.80;;;-6.10;99.90;;;;;;4996013;28;20165;-70
2021/12/25 05:38:15;;;;;;;10.18;3.42;;;-6.10;99.90;;;;;;4996324;28;20201;-70
2021/12/25 05:40:43;;;;;;;0.90;0.90;;;-6.10;99.90;;;;;;4994787;28;20177;-69
2021/12/25 05:43:08;;;;;;;1.10;1.10;;;-6.00;99.90;;;;;;4995836;28;20161;-69
2021/12/25 05:45:34;;;;;;;1.17;1.17;;;-6.10;99.90;;;;;;4995895;28;20543;-69
2021/12/25 05:48:00;;;;;;;0.90;0.90;;;-6.00;99.90;;;;;;4996064;28;20611;-70
2021/12/25 05:50:26;;;;;;;0.90;0.90;;;-6.00;99.90;;;;;;4995511;28;20176;-69
2021/12/25 05:52:51;;;;;;;1.00;1.00;;;-6.00;99.90;;;;;;4995702;28;20204;-70
2021/12/25 05:55:17;;;;;;;0.90;0.90;;;-6.00;99.90;;;;;;4995618;28;20177;-70
2021/12/25 05:57:42;;;;;;;1.30;1.20;;;-6.10;99.90;;;;;;4995518;28;20213;-69
2021/12/25 06:00:09;;;;;;;1.10;1.10;;;-6.10;99.90;;;;;;4995673;28;20219;-70
2021/12/25 06:02:36;;;;;;;0.90;0.90;;;-6.20;99.90;;;;;;4994252;28;20197;-70
2021/12/25 06:05:04;;;;;;;0.85;0.85;;;-6.20;99.90;;;;;;4995480;28;20219;-69
2021/12/25 06:07:30;;;;;;;1.00;1.00;;;-6.20;99.90;;;;;;4995333;28;20177;-70
2021/12/25 06:09:56;;;;;;;0.90;0.90;;;-6.30;99.90;;;;;;4995287;28;20169;-69
2021/12/25 06:12:22;;;;;;;0.90;0.90;;;-6.30;99.90;;;;;;4995180;28;20204;-70
2021/12/25 06:14:48;;;;;;;1.60;1.50;;;-6.30;99.90;;;;;;4995588;28;20173;-69
2021/12/25 06:17:14;;;;;;;0.83;0.83;;;-6.30;99.90;;;;;;4995528;28;20312;-70
2021/12/25 06:19:39;;;;;;;0.80;0.80;;;-6.20;99.90;;;;;;4995310;28;20404;-70
2021/12/25 06:22:05;;;;;;;1.17;1.17;;;-6.10;99.90;;;;;;4992973;28;20193;-69
2021/12/25 06:24:31;;;;;;;0.90;0.90;;;-6.20;99.90;;;;;;4993307;28;20655;-70
2021/12/25 06:26:57;;;;;;;0.80;0.80;;;-6.30;99.90;;;;;;4991355;28;20526;-70
2021/12/25 06:29:23;;;;;;;0.90;0.90;;;-6.30;99.90;;;;;;4995226;28;20172;-71
2021/12/25 06:31:50;;;;;;;0.97;0.97;;;-6.30;99.90;;;;;;4992994;28;20232;-70
2021/12/25 06:34:16;;;;;;;0.95;0.95;;;-6.30;99.90;;;;;;4994545;28;20604;-70
2021/12/25 06:36:41;;;;;;;1.08;1.08;;;-6.30;99.90;;;;;;4993612;28;20220;-70
2021/12/25 06:39:11;;;;;;;0.90;0.90;;;-6.30;99.90;;;;;;4993183;28;20662;-70
2021/12/25 06:41:36;;;;;;;0.90;0.90;;;-6.30;99.90;;;;;;4991631;28;20188;-70
2021/12/25 06:44:02;;;;;;;0.90;0.90;;;-6.30;99.90;;;;;;4975769;28;20244;-70
2021/12/25 06:46:28;;;;;;;0.87;0.87;;;-6.30;99.90;;;;;;4993615;28;20271;-70
2021/12/25 06:48:53;;;;;;;0.90;0.90;;;-6.40;99.90;;;;;;4994780;28;20169;-70
2021/12/25 06:51:19;;;;;;;1.00;0.90;;;-6.40;99.90;;;;;;4994947;28;20312;-70
2021/12/25 06:53:46;;;;;;;0.90;0.90;;;-6.20;99.90;;;;;;4994559;28;20679;-70
2021/12/25 06:56:11;;;;;;;0.90;0.90;;;-6.30;99.90;;;;;;4988102;28;20169;-71
2021/12/25 06:58:37;;;;;;;0.90;0.90;;;-6.30;99.90;;;;;;4975150;28;20193;-70
2021/12/25 07:01:03;;;;;;;1.00;1.00;;;-6.30;99.90;;;;;;4975179;28;20205;-70
2021/12/25 07:03:28;;;;;;;1.83;1.73;;;-6.30;99.90;;;;;;4975002;28;20562;-70
2021/12/25 07:05:54;;;;;;;0.80;0.80;;;-6.30;99.90;;;;;;4975241;28;20673;-70
2021/12/25 07:08:20;;;;;;;0.80;0.80;;;-6.30;99.90;;;;;;4975157;28;20184;-70
2021/12/25 07:10:45;;;;;;;0.90;0.90;;;-6.30;99.90;;;;;;4975076;28;20213;-71
2021/12/25 07:13:16;;;;;;;1.10;1.10;;;-6.30;99.90;;;;;;4974976;28;20413;-69
2021/12/25 07:15:42;;;;;;;0.90;0.90;;;-6.20;99.90;;;;;;4974868;28;20177;-70
2021/12/25 07:18:08;;;;;;;0.90;0.90;;;-6.10;99.90;;;;;;4973256;28;20544;-72
2021/12/25 07:20:34;;;;;;;1.10;1.10;;;-6.10;99.90;;;;;;4974866;28;20512;-71
2021/12/25 07:23:00;;;;;;;1.10;1.10;;;-6.20;99.90;;;;;;4980401;28;20675;-71
2021/12/25 07:25:26;;;;;;;1.67;1.58;;;-6.20;99.90;;;;;;4993951;28;20161;-70
2021/12/25 07:27:51;;;;;;;0.90;0.90;;;-6.20;99.90;;;;;;4993771;28;20554;-71
2021/12/25 07:30:18;;;;;;;0.90;0.90;;;-6.10;99.90;;;;;;4999435;28;20230;-71
2021/12/25 07:32:43;;;;;;;0.90;0.90;;;-6.10;99.90;;;;;;4993320;28;20311;-70
2021/12/25 07:35:09;;;;;;;1.70;1.60;;;-6.00;99.90;;;;;;4993903;28;20648;-69
2021/12/25 07:37:35;;;;;;;2.00;0.97;;;-6.10;99.90;;;;;;4993603;28;20197;-69
2021/12/25 07:40:03;;;;;;;1.33;1.23;;;-6.10;99.90;;;;;;4993695;28;20209;-70
2021/12/25 07:42:28;;;;;;;0.90;0.90;;;-6.10;99.90;;;;;;4993361;28;20735;-70
2021/12/25 07:44:56;;;;;;;0.90;0.90;;;-6.20;99.90;;;;;;4993005;28;20173;-70
2021/12/25 07:47:23;;;;;;;1.15;1.15;;;-6.10;99.90;;;;;;4992897;28;20169;-70
2021/12/25 07:49:50;;;;;;;0.80;0.80;;;-6.10;99.90;;;;;;4993836;28;20181;-70
2021/12/25 07:52:15;;;;;;;1.25;1.00;;;-6.10;99.90;;;;;;4993450;28;20227;-70
2021/12/25 07:54:42;;;;;;;2.40;2.20;;;-6.10;99.90;;;;;;4993630;28;20200;-68
2021/12/25 07:57:08;;;;;;;1.27;1.27;;;-6.10;99.90;;;;;;4993225;28;20455;-70
2021/12/25 07:59:33;;;;;;;1.00;1.00;;;-5.90;99.90;;;;;;4993457;28;20165;-71
2021/12/25 08:01:58;;;;;;;0.90;0.90;;;-5.90;99.90;;;;;;4993421;28;20193;-71
2021/12/25 08:04:24;;;;;;;3.00;2.57;;;-5.90;99.90;;;;;;4991852;28;20173;-70
2021/12/25 08:06:49;;;;;;;0.90;0.90;;;-5.90;99.90;;;;;;4993007;28;20292;-70
2021/12/25 08:09:20;;;;;;;0.97;0.97;;;-5.80;99.90;;;;;;4993012;28;20181;-69
2021/12/25 08:11:46;;;;;;;1.10;1.10;;;-5.90;99.90;;;;;;4992911;28;20695;-70
2021/12/25 08:14:11;;;;;;;1.17;1.13;;;-5.80;99.90;;;;;;5024704;28;20221;-70
2021/12/25 08:16:38;;;;;;;2.40;1.20;;;-5.80;99.90;;;;;;4992781;28;20664;-71
2021/12/25 08:19:04;;;;;;;1.00;1.00;;;-5.60;99.90;;;;;;4993118;28;20180;-69
2021/12/25 08:21:29;;;;;;;4.20;1.27;;;-5.60;99.90;;;;;;4992968;28;20556;-70
2021/12/25 08:23:55;;;;;;;0.97;0.97;;;-5.60;99.90;;;;;;4992554;28;20176;-70
2021/12/25 08:26:20;;;;;;;1.57;1.47;;;-5.50;99.90;;;;;;4992810;28;20248;-70
2021/12/25 08:28:45;;;;;;;1.00;1.00;;;-5.40;99.90;;;;;;4992602;28;20275;-70
2021/12/25 08:31:11;;;;;;;0.90;0.90;;;-5.40;99.90;;;;;;4990154;28;20205;-70
2021/12/25 08:33:36;;;;;;;0.80;0.80;;;-5.40;99.90;;;;;;4985472;28;20209;-70
2021/12/25 08:36:02;;;;;;;0.80;0.80;;;-5.20;99.90;;;;;;4992473;28;20181;-70
2021/12/25 08:38:28;;;;;;;0.97;0.97;;;-4.90;99.90;;;;;;4973311;28;20252;-69
2021/12/25 08:40:55;;;;;;;2.13;2.03;;;-4.50;99.90;;;;;;4973034;28;20429;-70
2021/12/25 08:43:24;;;;;;;1.45;1.45;;;-4.40;99.90;;;;;;4972930;28;20592;-69
2021/12/25 08:46:02;;;;;;;1.05;1.05;;;-4.30;99.90;;;;;;4973002;28;20166;-70
2021/12/25 08:48:27;;;;;;;1.30;0.97;;;-4.30;99.90;;;;;;4974953;28;20551;-70
2021/12/25 08:50:55;;;;;;;2.80;2.17;;;-4.20;99.90;;;;;;4992933;28;20431;-71
2021/12/25 08:53:23;;;;;;;1.87;1.70;;;-4.00;99.90;;;;;;4993318;28;20169;-70
2021/12/25 08:55:51;;;;;;;1.00;1.00;;;-3.80;99.90;;;;;;4997938;28;20815;-70
2021/12/25 08:58:17;;;;;;;1.33;1.23;;;-3.70;99.90;;;;;;4998589;28;20452;-72
2021/12/25 09:00:43;;;;;;;1.20;1.20;;;-3.60;99.90;;;;;;4999528;28;20411;-71
2021/12/25 09:03:09;;;;;;;0.90;0.90;;;-3.90;99.90;;;;;;4999226;28;20443;-71
2021/12/25 09:05:35;;;;;;;1.40;1.30;;;-4.20;99.90;;;;;;4992629;28;20826;-70
2021/12/25 09:08:02;;;;;;;3.13;1.30;;;-4.20;99.90;;;;;;4990811;28;20431;-70
2021/12/25 09:10:28;;;;;;;2.10;1.53;;;-4.10;99.90;;;;;;4992028;28;20499;-69
2021/12/25 09:12:55;;;;;;;0.93;0.93;;;-4.20;99.90;;;;;;4991938;28;20436;-70
2021/12/25 09:15:20;;;;;;;0.90;0.90;;;-4.20;99.90;;;;;;4992021;28;20404;-70
2021/12/25 09:17:46;;;;;;;1.10;1.10;;;-4.10;99.90;;;;;;4991978;28;20857;-71
2021/12/25 09:20:15;;;;;;;1.37;1.27;;;-4.20;99.90;;;;;;4992060;28;20168;-74
2021/12/25 09:22:41;;;;;;;1.20;1.20;;;-4.20;99.90;;;;;;4989214;28;20449;-69
2021/12/25 09:25:07;;;;;;;2.13;2.03;;;-4.20;99.90;;;;;;4991158;28;20934;-69
2021/12/25 09:27:33;;;;;;;1.47;1.20;;;-4.10;99.90;;;;;;4992340;28;20257;-71
2021/12/25 09:29:59;;;;;;;1.30;1.20;;;-4.10;99.90;;;;;;4987157;28;20502;-70
2021/12/25 09:32:24;;;;;;;0.80;0.80;;;-4.10;99.90;;;;;;5000145;28;20201;-70
2021/12/25 09:34:51;;;;;;;1.83;1.40;;;-4.10;99.90;;;;;;4984045;28;20765;-69
2021/12/25 09:37:16;;;;;;;1.00;1.00;;;-4.00;99.90;;;;;;4970862;28;20196;-70
2021/12/25 09:39:42;;;;;;;1.30;1.30;;;-4.00;99.90;;;;;;4986379;28;20417;-69
2021/12/25 09:42:07;;;;;;;1.93;1.83;;;-4.00;99.90;;;;;;4990924;28;20193;-75
2021/12/25 09:44:33;;;;;;;1.33;1.33;;;-4.00;99.90;;;;;;4991333;28;20165;-70
2021/12/25 09:47:00;;;;;;;1.13;1.13;;;-4.00;99.90;;;;;;4990197;28;20670;-69
2021/12/25 09:49:26;;;;;;;6.95;1.50;;;-3.90;99.90;;;;;;4990374;28;20308;-71
2021/12/25 09:51:51;;;;;;;0.90;0.90;;;-3.90;99.90;;;;;;4984874;28;20284;-71
2021/12/25 09:54:18;;;;;;;1.63;1.07;;;-3.90;99.90;;;;;;4972034;28;20272;-70
2021/12/25 09:56:47;;;;;;;0.90;0.90;;;-3.80;99.90;;;;;;4984383;28;20679;-69
2021/12/25 09:59:13;;;;;;;0.90;0.90;;;-3.70;99.90;;;;;;4991149;28;20423;-70
2021/12/25 10:01:47;;;;;;;0.80;0.80;;;-3.70;99.90;;;;;;4991408;28;20431;-70
2021/12/25 10:04:31;;;;;;;0.80;0.80;;;-3.70;99.90;;;;;;4991216;28;20403;-70
2021/12/25 10:06:57;;;;;;;1.77;1.10;;;-3.60;99.90;;;;;;4991113;28;20439;-70
2021/12/25 10:09:25;;;;;;;0.90;0.90;;;-3.60;99.90;;;;;;4992629;28;20424;-71
2021/12/25 10:12:07;;;;;;;1.50;1.40;;;-3.50;99.90;;;;;;4994745;28;20455;-70
2021/12/25 10:14:33;;;;;;;6.10;1.30;;;-3.50;99.90;;;;;;4993634;28;20435;-71
2021/12/25 10:17:15;;;;;;;1.20;1.20;;;-3.40;99.90;;;;;;4994567;28;20491;-71
2021/12/25 10:19:42;;;;;;;0.90;0.90;;;-3.40;99.90;;;;;;4995145;28;20404;-72
2021/12/25 10:22:10;;;;;;;0.80;0.80;;;-3.40;99.90;;;;;;4994622;28;20432;-71
2021/12/25 10:24:48;;;;;;;0.70;0.70;;;-3.40;99.90;;;;;;4994949;28;20496;-70
2021/12/25 10:27:17;;;;;;;1.90;1.50;;;-3.40;99.90;;;;;;4994901;28;20782;-70
2021/12/25 10:29:43;;;;;;;0.90;0.90;;;-3.40;99.90;;;;;;4995803;28;20420;-70
2021/12/25 10:32:39;;;;;;;1.27;1.00;;;-3.30;99.90;;;;;;5014260;28;20536;-70
2021/12/25 10:35:19;;;;;;;17.80;2.50;;;-3.30;99.90;;;;;;4994299;28;20423;-70
2021/12/25 10:37:46;;;;;;;1.00;1.00;;;-3.20;99.90;;;;;;4994631;28;20463;-72
2021/12/25 10:40:28;;;;;;;2.20;1.53;;;-3.10;99.90;;;;;;4994564;28;20454;-71
2021/12/25 10:43:00;;;;;;;0.90;0.90;;;-3.10;99.90;;;;;;4992825;28;20420;-70
2021/12/25 10:45:28;;;;;;;0.80;0.80;;;-3.10;99.90;;;;;;4993895;28;20444;-70
2021/12/25 10:48:06;;;;;;;2.13;2.03;;;-3.00;99.90;;;;;;4992778;28;20510;-71
2021/12/25 10:50:39;;;;;;;0.70;0.70;;;-3.00;99.90;;;;;;4993843;28;20420;-70
2021/12/25 10:53:22;;;;;;;2.50;2.40;;;-3.00;99.90;;;;;;4994058;28;20408;-71
2021/12/25 10:55:48;;;;;;;0.83;0.83;;;-2.90;99.90;;;;;;4994150;28;20490;-70
2021/12/25 10:58:22;;;;;;;1.30;1.20;;;-2.90;99.90;;;;;;4994377;28;20487;-70
2021/12/25 11:00:56;;;;;;;4.10;1.27;;;-2.90;99.90;;;;;;4994127;28;20440;-71
2021/12/25 11:03:31;;;;;;;3.40;0.97;;;-2.80;99.90;;;;;;4993983;28;20415;-71
2021/12/25 11:06:03;;;;;;;1.47;1.37;;;-2.70;99.90;;;;;;4994104;28;20494;-71
2021/12/25 11:08:29;;;;;;;1.60;1.50;;;-2.70;99.90;;;;;;4994007;28;20506;-71
2021/12/25 11:11:13;;;;;;;0.90;0.90;;;-2.70;99.90;;;;;;4994206;28;20535;-69
2021/12/25 11:13:53;;;;;;;0.90;0.90;;;-2.60;99.90;;;;;;4994855;28;20399;-74
2021/12/25 11:16:28;;;;;;;0.90;0.90;;;-2.60;99.90;;;;;;4994923;28;20886;-71
2021/12/25 11:19:06;;;;;;;0.80;0.80;;;-2.60;99.90;;;;;;4994112;28;20408;-68
2021/12/25 11:21:58;;;;;;;1.90;0.90;;;-2.60;99.90;;;;;;4994269;28;20416;-72
2021/12/25 11:24:35;;;;;;;0.93;0.93;;;-2.50;99.90;;;;;;4982794;28;20763;-72
2021/12/25 11:27:04;;;;;;;1.10;1.10;;;-2.40;99.90;;;;;;4981936;28;20416;-71
2021/12/25 11:29:32;;;;;;;2.03;1.93;;;-2.40;99.90;;;;;;4993924;28;20470;-71
2021/12/25 11:31:58;;;;;;;0.80;0.80;;;-2.40;99.90;;;;;;4993365;28;20467;-70
2021/12/25 11:34:25;;;;;;;1.20;1.10;;;-2.30;99.90;;;;;;4992127;28;20420;-71
2021/12/25 11:36:52;;;;;;;0.90;0.90;;;-2.40;99.90;;;;;;4993242;28;20452;-71
2021/12/25 11:39:21;;;;;;;1.30;1.20;;;-2.30;99.90;;;;;;4992493;28;20407;-71
2021/12/25 11:41:48;;;;;;;2.30;2.20;;;-2.30;99.90;;;;;;4993593;28;20935;-71
2021/12/25 11:44:34;;;;;;;1.37;1.37;;;-2.30;99.90;;;;;;4993182;28;20443;-71
2021/12/25 11:47:00;;;;;;;0.80;0.80;;;-2.20;99.90;;;;;;4992902;28;20784;-72
2021/12/25 11:49:25;;;;;;;0.70;0.70;;;-2.20;99.90;;;;;;4993411;28;20408;-71
2021/12/25 11:51:52;;;;;;;1.20;1.10;;;-2.20;99.90;;;;;;4991732;28;21148;-71
2021/12/25 11:59:47;;;;;;;0.87;0.87;;;-2.00;99.90;;;;;;4993114;28;20413;-72
2021/12/25 12:02:41;;;;;;;1.10;1.00;;;-2.00;99.90;;;;;;4991801;28;20969;-70
2021/12/25 12:05:24;;;;;;;0.90;0.90;;;-2.00;99.90;;;;;;4992885;28;20408;-73
2021/12/25 12:08:09;;;;;;;1.37;1.07;;;-1.90;99.90;;;;;;4992939;28;20419;-71
2021/12/25 12:10:55;;;;;;;1.57;1.00;;;-1.90;99.90;;;;;;4992783;28;20466;-71
2021/12/25 12:13:30;;;;;;;0.80;0.80;;;-1.90;99.90;;;;;;4992837;28;20976;-72
2021/12/25 12:16:01;;;;;;;1.00;0.90;;;-2.00;99.90;;;;;;4992410;28;20485;-70
2021/12/25 12:18:27;;;;;;;1.40;1.20;;;-2.00;99.90;;;;;;4992636;28;20506;-72
2021/12/25 12:21:08;;;;;;;1.20;1.10;;;-1.90;99.90;;;;;;4990831;28;20440;-70
2021/12/25 12:24:08;;;;;;;1.53;1.43;;;-1.80;99.90;;;;;;4992331;28;20463;-70
2021/12/25 12:26:47;;;;;;;0.80;0.80;;;-1.90;99.90;;;;;;4992285;28;20840;-70
2021/12/25 12:29:14;;;;;;;1.13;1.00;;;-1.80;99.90;;;;;;4992668;28;20404;-71
2021/12/25 12:31:46;;;;;;;1.90;0.83;;;-1.80;99.90;;;;;;4993187;28;20510;-70
2021/12/25 12:34:36;;;;;;;0.80;0.80;;;-1.70;99.90;;;;;;4988158;28;20558;-72
2021/12/25 12:37:13;;;;;;;3.37;1.30;;;-1.70;99.90;;;;;;4970313;28;20493;-71
2021/12/25 12:39:52;;;;;;;1.00;1.00;;;-1.70;99.90;;;;;;4978635;28;20408;-72
2021/12/25 12:42:18;;;;;;;0.80;0.80;;;-1.70;99.90;;;;;;4993879;28;20427;-71
2021/12/25 12:44:44;;;;;;;0.90;0.90;;;-1.70;99.90;;;;;;4993918;28;20404;-71
2021/12/25 12:47:15;;;;;;;1.30;1.10;;;-1.60;99.90;;;;;;4994969;28;20260;-72
2021/12/25 12:49:49;;;;;;;0.80;0.80;;;-1.70;99.90;;;;;;4995638;28;20181;-72
2021/12/25 12:52:25;;;;;;;0.80;0.80;;;-1.70;99.90;;;;;;4993093;28;20494;-71
2021/12/25 12:55:05;;;;;;;1.00;1.00;;;-1.80;99.90;;;;;;4992332;28;20404;-71
2021/12/25 12:57:35;;;;;;;1.30;0.90;;;-1.80;99.90;;;;;;4992325;28;20455;-71
2021/12/25 13:00:22;;;;;;;0.77;0.77;;;-1.80;99.90;;;;;;4992037;28;20420;-71
2021/12/25 13:02:56;;;;;;;1.30;1.20;;;-1.80;99.90;;;;;;4991861;28;20434;-73
2021/12/25 13:05:30;;;;;;;1.17;1.07;;;-1.70;99.90;;;;;;4992058;28;20404;-72
2021/12/25 13:07:57;;;;;;;1.97;1.87;;;-1.70;99.90;;;;;;4991799;28;20930;-71
2021/12/25 13:10:32;;;;;;;0.80;0.80;;;-1.60;99.90;;;;;;4991764;28;20423;-70
2021/12/25 13:13:12;;;;;;;0.80;0.80;;;-1.70;99.90;;;;;;4991928;28;20477;-71
2021/12/25 13:15:38;;;;;;;0.90;0.90;;;-1.70;99.90;;;;;;4991872;28;20419;-71
2021/12/25 13:18:06;;;;;;;0.80;0.80;;;-1.60;99.90;;;;;;4991720;28;20466;-71
2021/12/25 13:20:50;;;;;;;1.00;1.00;;;-1.70;99.90;;;;;;4991439;28;20417;-70
2021/12/25 13:23:20;;;;;;;0.90;0.90;;;-1.70;99.90;;;;;;4991895;28;20507;-70
2021/12/25 13:25:54;;;;;;;1.30;1.20;;;-1.60;99.90;;;;;;5011163;28;20419;-74
2021/12/25 13:28:21;;;;;;;1.07;0.90;;;-1.70;99.90;;;;;;4992142;28;20416;-76
2021/12/25 13:30:57;;;;;;;1.53;1.43;;;-1.80;99.90;;;;;;5001883;28;20518;-71
2021/12/25 13:33:25;;;;;;;0.80;0.80;;;-1.70;99.90;;;;;;5007925;28;20506;-72
2021/12/25 13:36:07;;;;;;;0.93;0.83;;;-1.70;99.90;;;;;;4991908;28;20412;-71
2021/12/25 13:38:56;;;;;;;0.87;0.87;;;-1.70;99.90;;;;;;4973637;28;20473;-71
2021/12/25 13:41:47;;;;;;;1.17;1.07;;;-1.70;99.90;;;;;;4986641;28;20440;-71
2021/12/25 13:44:14;;;;;;;5.40;1.17;;;-1.70;99.90;;;;;;4978082;28;20400;-72
2021/12/25 13:46:43;;;;;;;0.87;0.87;;;-1.80;99.90;;;;;;4976044;28;20765;-72
2021/12/25 13:49:29;;;;;;;1.53;1.43;;;-1.70;99.90;;;;;;4976398;28;20401;-71
2021/12/25 13:51:55;;;;;;;1.83;0.90;;;-1.70;99.90;;;;;;4976120;28;20504;-70
2021/12/25 13:54:21;;;;;;;1.90;1.80;;;-1.80;99.90;;;;;;4976090;28;20511;-71
2021/12/25 13:56:48;;;;;;;1.73;1.10;;;-1.80;99.90;;;;;;4995321;28;20467;-71
2021/12/25 13:59:14;;;;;;;0.80;0.80;;;-1.80;99.90;;;;;;4995560;28;20180;-71
2021/12/25 14:01:39;;;;;;;1.30;1.20;;;-1.90;99.90;;;;;;4995422;28;20511;-71
2021/12/25 14:04:09;;;;;;;0.80;0.80;;;-1.90;99.90;;;;;;4995585;28;20176;-71
2021/12/25 14:06:36;;;;;;;1.30;1.20;;;-2.00;99.90;;;;;;4994233;28;20180;-72
2021/12/25 14:09:02;;;;;;;1.87;1.07;;;-2.10;99.90;;;;;;4993969;28;20439;-72